Time;durP1;ratioP1;P1;durP2;ratioP2;P2;SDS_P1;SDS_P2;PMS_P1;PMS_P2;Temp;Humidity;BMP_temperature;BMP_pressure;BME280_temperature;BME280_humidity;BME280_pressure;Samples;Min_cycle;Max_cycle;Signal;HPM_P1;HPM_P2
2022/01/04 00:02:05;;;;;;;2.35;1.17;;;;;;;-11.03;87.67;99553.19;5032079;28;20079;-68
2022/01/04 00:04:33;;;;;;;2.55;1.45;;;;;;;-11.11;88.06;99542.22;5031862;28;20381;-65
2022/01/04 00:07:00;;;;;;;1.38;1.27;;;;;;;-11.13;88.73;99539.66;5032805;28;20049;-66
2022/01/04 00:09:28;;;;;;;1.48;1.38;;;;;;;-11.06;87.94;99538.09;5036056;28;20049;-66
2022/01/04 00:13:21;;;;;;;1.75;1.40;;;;;;;-11.03;87.52;99535.59;5035808;28;20049;-68
2022/01/04 00:14:47;;;;;;;1.77;1.67;;;;;;;-11.06;88.52;99533.06;5035572;28;20412;-66
2022/01/04 00:17:14;;;;;;;1.35;1.25;;;;;;;-11.09;88.16;99533.03;5035567;28;20049;-66
2022/01/04 00:19:41;;;;;;;2.72;1.45;;;;;;;-11.08;87.88;99525.50;5035639;28;20100;-69
2022/01/04 00:22:09;;;;;;;1.45;1.23;;;;;;;-10.98;87.33;99518.94;5035616;28;20103;-67
2022/01/04 00:24:38;;;;;;;1.50;1.25;;;;;;;-10.97;87.99;99523.09;5035591;28;20049;-65
2022/01/04 00:27:05;;;;;;;2.10;1.42;;;;;;;-11.02;87.73;99525.59;5035569;28;20042;-68
2022/01/04 00:29:32;;;;;;;1.85;1.75;;;;;;;-11.10;88.54;99519.59;5035409;28;20099;-68
2022/01/04 00:31:59;;;;;;;1.50;1.40;;;;;;;-11.06;87.90;99518.00;5035461;28;20054;-68
2022/01/04 00:34:26;;;;;;;1.65;1.55;;;;;;;-11.00;87.04;99508.00;5035628;28;20042;-68
2022/01/04 00:36:54;;;;;;;2.13;1.92;;;;;;;-11.14;87.32;99515.38;5035687;28;20107;-69
2022/01/04 00:39:21;;;;;;;1.98;1.88;;;;;;;-11.10;87.01;99508.72;5035387;28;20049;-68
2022/01/04 00:41:49;;;;;;;1.42;1.25;;;;;;;-11.17;87.24;99520.38;5035476;28;20103;-69
2022/01/04 00:44:16;;;;;;;1.30;1.20;;;;;;;-11.19;87.35;99510.28;5035374;28;20549;-68
2022/01/04 00:46:44;;;;;;;2.15;1.70;;;;;;;-11.13;88.07;99523.75;5035156;28;20041;-69
2022/01/04 00:49:10;;;;;;;4.60;1.30;;;;;;;-11.22;87.30;99512.78;5035128;28;20050;-65
2022/01/04 00:51:37;;;;;;;1.50;1.40;;;;;;;-11.24;88.22;99523.63;5034884;28;20095;-69
2022/01/04 00:54:05;;;;;;;1.45;1.35;;;;;;;-11.32;87.99;99510.13;5034903;28;20484;-69
2022/01/04 00:56:32;;;;;;;1.40;1.27;;;;;;;-11.28;88.46;99510.16;5034956;28;20053;-65
2022/01/04 00:59:01;;;;;;;1.25;1.20;;;;;;;-11.29;88.27;99512.69;5034805;28;20041;-68
2022/01/04 01:01:28;;;;;;;1.30;1.20;;;;;;;-11.13;88.38;99506.19;5034970;28;20487;-68
2022/01/04 01:03:55;;;;;;;;;;;;;;;-11.14;87.34;99502.81;5035258;28;20054;-68
2022/01/04 01:06:23;;;;;;;1.42;1.33;;;;;;;-11.32;88.27;99505.09;5034885;28;20318;-68
2022/01/04 01:08:50;;;;;;;1.10;1.10;;;;;;;-11.18;87.71;99498.56;5034704;28;20377;-69
2022/01/04 01:11:17;;;;;;;2.67;1.40;;;;;;;-11.30;88.29;99504.31;5034512;28;20503;-68
2022/01/04 01:13:44;;;;;;;;;;;;;;;-11.28;87.53;99502.63;5034892;28;20107;-69
2022/01/04 01:16:13;;;;;;;1.00;1.00;;;;;;;-11.19;86.77;99500.25;5034865;28;19921;-69
2022/01/04 01:18:40;;;;;;;9.98;2.20;;;;;;;-11.32;87.90;99503.44;5034500;28;20554;-69
2022/01/04 01:21:08;;;;;;;2.95;1.80;;;;;;;-11.28;87.42;99499.28;5034443;28;20527;-67
2022/01/04 01:23:37;;;;;;;3.40;1.50;;;;;;;-11.38;87.96;99508.34;5034435;28;20446;-69
2022/01/04 01:26:04;;;;;;;2.42;1.30;;;;;;;-11.37;87.52;99497.50;5034476;28;20053;-67
2022/01/04 01:28:33;;;;;;;2.67;1.73;;;;;;;-11.36;87.12;99503.38;5034574;28;20099;-68
2022/01/04 01:31:01;;;;;;;1.25;1.25;;;;;;;-11.22;87.01;99500.22;5034241;28;20128;-69
2022/01/04 01:33:29;;;;;;;1.67;1.48;;;;;;;-11.28;87.30;99502.63;5034240;28;20042;-68
2022/01/04 01:35:57;;;;;;;2.45;1.85;;;;;;;-11.26;86.68;99492.63;5034209;28;20057;-69
2022/01/04 01:38:25;;;;;;;1.67;1.58;;;;;;;-11.27;87.55;99498.47;5034057;28;20092;-69
2022/01/04 01:40:53;;;;;;;1.48;1.38;;;;;;;-11.25;86.45;99495.16;5034740;28;20041;-67
2022/01/04 01:43:23;;;;;;;1.92;1.58;;;;;;;-11.31;87.23;99491.72;5034266;28;20053;-69
2022/01/04 01:45:50;;;;;;;1.38;1.27;;;;;;;-11.29;87.01;99490.06;5034107;28;20073;-69
2022/01/04 01:48:17;;;;;;;4.97;1.65;;;;;;;-11.30;86.19;99483.34;5034079;28;20049;-69
2022/01/04 01:50:46;;;;;;;1.33;1.23;;;;;;;-11.28;87.36;99476.69;5033979;28;20050;-64
2022/01/04 01:53:13;;;;;;;2.17;1.63;;;;;;;-11.31;86.40;99480.00;5034221;28;20057;-70
2022/01/04 01:55:40;;;;;;;1.48;1.33;;;;;;;-11.33;87.46;99474.09;5033980;28;20049;-69
2022/01/04 01:58:08;;;;;;;1.20;1.13;;;;;;;-11.38;87.33;99478.22;5033982;28;20100;-69
2022/01/04 02:00:34;;;;;;;;;;;;;;;-11.25;87.15;99476.72;5034456;28;20049;-69
2022/01/04 02:03:02;;;;;;;3.28;1.52;;;;;;;-11.31;87.08;99479.16;5033614;28;19975;-69
2022/01/04 02:05:30;;;;;;;2.00;1.30;;;;;;;-11.33;86.88;99475.78;5033670;28;20052;-69
2022/01/04 02:08:00;;;;;;;1.60;1.20;;;;;;;-11.32;86.20;99467.44;5033914;28;20565;-69
2022/01/04 02:10:27;;;;;;;1.33;1.20;;;;;;;-11.31;87.03;99466.59;5033535;28;20049;-69
2022/01/04 02:12:54;;;;;;;1.33;1.23;;;;;;;-11.32;86.80;99464.94;5033598;28;20053;-69
2022/01/04 02:15:22;;;;;;;;;;;;;;;-11.25;87.12;99467.53;5033938;28;20041;-69
2022/01/04 02:17:50;;;;;;;1.08;1.08;;;;;;;-11.35;87.68;99455.69;5033481;28;19925;-69
2022/01/04 02:20:19;;;;;;;1.15;1.10;;;;;;;-11.31;85.90;99454.06;5033311;28;20526;-66
2022/01/04 02:22:47;;;;;;;2.17;1.42;;;;;;;-11.30;86.82;99458.25;5033562;28;20049;-70
2022/01/04 02:25:15;;;;;;;2.40;1.60;;;;;;;-11.42;86.83;99459.78;5033524;28;20054;-69
2022/01/04 02:27:41;;;;;;;;;;;;;;;-11.33;86.89;99464.06;5033759;28;20045;-69
2022/01/04 02:30:11;;;;;;;3.05;1.40;;;;;;;-11.38;86.34;99457.31;5032900;28;19925;-68
2022/01/04 02:32:38;;;;;;;1.70;1.60;;;;;;;-11.42;86.87;99454.75;5033005;28;20451;-65
2022/01/04 02:35:06;;;;;;;;;;;;;;;-11.34;86.60;99446.50;5033601;28;20107;-69
2022/01/04 02:37:34;;;;;;;2.05;1.73;;;;;;;-11.27;86.58;99453.28;5033156;28;20320;-69
2022/01/04 02:40:02;;;;;;;1.10;1.10;;;;;;;-11.32;86.68;99450.72;5032975;28;20578;-69
2022/01/04 02:42:29;;;;;;;6.28;1.60;;;;;;;-11.36;86.94;99445.63;5032752;28;20065;-70
2022/01/04 02:44:58;;;;;;;1.35;1.25;;;;;;;-11.28;87.28;99452.41;5032765;28;20045;-69
2022/01/04 02:47:25;;;;;;;1.48;1.38;;;;;;;-11.30;87.72;99450.72;5032716;28;20076;-69
2022/01/04 02:49:52;;;;;;;1.40;1.30;;;;;;;-11.27;87.07;99443.25;5033057;28;20045;-69
2022/01/04 02:52:19;;;;;;;2.25;1.20;;;;;;;-11.26;86.88;99438.22;5032660;28;20096;-68
2022/01/04 02:54:47;;;;;;;1.65;1.27;;;;;;;-11.22;86.59;99432.41;5032953;28;20053;-69
2022/01/04 02:57:15;;;;;;;1.40;1.30;;;;;;;-11.33;86.17;99436.44;5032887;28;20045;-69
2022/01/04 02:59:42;;;;;;;0.98;0.98;;;;;;;-11.24;86.93;99445.78;5032575;28;20049;-69
2022/01/04 03:02:09;;;;;;;1.33;1.25;;;;;;;-11.23;86.88;99432.38;5032828;28;20123;-69
2022/01/04 03:04:36;;;;;;;1.50;1.40;;;;;;;-11.24;86.58;99440.75;5032481;28;20061;-69
2022/01/04 03:07:03;;;;;;;1.42;1.30;;;;;;;-11.32;87.27;99433.13;5032716;28;20099;-69
2022/01/04 03:09:30;;;;;;;1.42;1.30;;;;;;;-11.27;86.88;99431.50;5032417;28;20056;-69
2022/01/04 03:11:59;;;;;;;7.63;1.65;;;;;;;-11.31;86.96;99429.78;5032316;28;20099;-69
2022/01/04 03:14:26;;;;;;;2.40;1.50;;;;;;;-11.29;87.25;99422.28;5032329;28;20049;-69
2022/01/04 03:16:53;;;;;;;1.48;1.38;;;;;;;-11.30;86.41;99420.56;5032835;28;20045;-69
2022/01/04 03:19:20;;;;;;;3.67;1.67;;;;;;;-11.43;87.01;99427.13;5032559;28;20080;-66
2022/01/04 03:21:47;;;;;;;2.05;1.65;;;;;;;-11.34;87.02;99437.28;5032560;28;20423;-69
2022/01/04 03:24:15;;;;;;;1.15;1.13;;;;;;;-11.27;87.21;99418.97;5032407;28;20057;-70
2022/01/04 03:26:43;;;;;;;1.75;1.65;;;;;;;-11.28;86.46;99419.78;5032238;28;20550;-68
2022/01/04 03:29:14;;;;;;;3.03;1.27;;;;;;;-11.23;85.96;99419.81;5032607;28;20049;-69
2022/01/04 03:31:42;;;;;;;1.65;1.40;;;;;;;-11.35;87.39;99415.53;5032384;28;20115;-69
2022/01/04 03:34:09;;;;;;;1.40;1.30;;;;;;;-11.36;87.16;99406.28;5032552;28;20550;-69
2022/01/04 03:36:37;;;;;;;1.13;1.08;;;;;;;-11.28;86.25;99407.22;5032249;28;20053;-70
2022/01/04 03:39:06;;;;;;;1.77;1.60;;;;;;;-11.33;87.36;99408.00;5032140;28;20050;-69
2022/01/04 03:41:36;;;;;;;8.63;1.75;;;;;;;-11.26;86.32;99405.56;5032556;28;20855;-70
2022/01/04 03:44:04;;;;;;;4.03;1.83;;;;;;;-11.36;86.54;99400.44;5036261;28;20052;-69
2022/01/04 03:46:32;;;;;;;2.88;1.65;;;;;;;-11.43;87.04;99395.34;5036216;28;20050;-69
2022/01/04 03:48:59;;;;;;;4.93;1.50;;;;;;;-11.33;86.83;99401.28;5036230;28;20076;-69
2022/01/04 03:51:27;;;;;;;2.00;1.50;;;;;;;-11.35;87.51;99400.47;5036140;28;20053;-69
2022/01/04 03:53:53;;;;;;;;;;;;;;;-11.32;87.00;99382.91;5036480;28;20053;-69
2022/01/04 03:56:20;;;;;;;1.60;1.42;;;;;;;-11.29;86.52;99387.97;5036265;28;19921;-69
2022/01/04 03:58:47;;;;;;;;;;;;;;;-11.45;87.18;99381.94;5036796;28;20049;-69
2022/01/04 04:01:14;;;;;;;;;;;;;;;-11.31;86.37;99383.75;5036287;28;19929;-66
2022/01/04 04:03:43;;;;;;;1.30;1.10;;;;;;;-11.30;86.30;99381.25;5036044;28;19921;-69
2022/01/04 04:06:10;;;;;;;4.55;1.30;;;;;;;-11.33;87.02;99376.19;5036012;28;20096;-69
2022/01/04 04:08:37;;;;;;;1.13;1.10;;;;;;;-11.38;87.29;99369.44;5035720;28;20537;-69
2022/01/04 04:11:05;;;;;;;1.33;1.17;;;;;;;-11.34;86.93;99373.69;5035845;28;20041;-69
2022/01/04 04:13:32;;;;;;;1.85;1.60;;;;;;;-11.25;86.10;99368.75;5035648;28;20046;-69
2022/01/04 04:15:59;;;;;;;;;;;;;;;-11.37;86.63;99384.53;5036097;28;20100;-70
2022/01/04 04:18:26;;;;;;;1.00;1.00;;;;;;;-11.32;86.73;99377.06;5035660;28;19999;-69
2022/01/04 04:20:55;;;;;;;1.00;1.00;;;;;;;-11.30;86.56;99360.31;5035454;28;20046;-69
2022/01/04 04:23:22;;;;;;;2.58;1.65;;;;;;;-11.35;86.18;99372.84;5035449;28;20053;-69
2022/01/04 04:25:49;;;;;;;1.10;1.00;;;;;;;-11.31;86.27;99361.16;5035830;28;20041;-69
2022/01/04 04:28:16;;;;;;;1.20;1.15;;;;;;;-11.30;85.96;99363.69;5035410;28;20049;-64
2022/01/04 04:30:43;;;;;;;;;;;;;;;-11.28;86.67;99362.00;5035975;28;20099;-69
2022/01/04 04:33:10;;;;;;;1.05;1.05;;;;;;;-11.31;85.97;99359.47;5035403;28;19920;-69
2022/01/04 04:35:37;;;;;;;1.67;1.33;;;;;;;-11.34;86.74;99364.47;5035256;28;20123;-69
2022/01/04 04:38:07;;;;;;;2.17;1.63;;;;;;;-11.26;85.48;99357.84;5035411;28;20443;-69
2022/01/04 04:40:36;;;;;;;3.10;1.48;;;;;;;-11.42;86.93;99361.03;5035215;28;20562;-69
2022/01/04 04:43:02;;;;;;;;;;;;;;;-11.29;85.79;99351.97;5035958;28;20050;-70
2022/01/04 04:45:30;;;;;;;3.40;1.55;;;;;;;-11.29;86.05;99350.28;5035200;28;19924;-69
2022/01/04 04:47:57;;;;;;;2.45;1.40;;;;;;;-11.33;86.16;99360.28;5035054;28;20091;-68
2022/01/04 04:50:24;;;;;;;1.40;1.30;;;;;;;-11.40;86.83;99349.34;5035163;28;20045;-68
2022/01/04 04:52:51;;;;;;;1.48;1.30;;;;;;;-11.33;86.60;99356.09;5034689;28;20045;-69
2022/01/04 04:55:20;;;;;;;5.30;1.63;;;;;;;-11.25;86.46;99351.16;5035286;28;20053;-69
2022/01/04 04:57:47;;;;;;;1.30;1.20;;;;;;;-11.33;85.80;99356.09;5034965;28;20496;-68
2022/01/04 05:00:15;;;;;;;3.90;1.27;;;;;;;-11.24;86.31;99352.88;5034847;28;20045;-69
2022/01/04 05:02:42;;;;;;;3.10;1.98;;;;;;;-11.33;86.23;99358.59;5034699;28;20095;-67
2022/01/04 05:05:11;;;;;;;2.17;1.40;;;;;;;-11.29;86.37;99360.34;5034973;28;20053;-69
2022/01/04 05:07:38;;;;;;;2.38;1.65;;;;;;;-11.29;85.45;99362.84;5034881;28;20103;-69
2022/01/04 05:10:07;;;;;;;1.58;1.33;;;;;;;-11.28;86.48;99362.00;5034890;28;20106;-68
2022/01/04 05:12:36;;;;;;;2.83;1.40;;;;;;;-11.27;87.09;99351.16;5034577;28;20084;-69
2022/01/04 05:15:04;;;;;;;1.77;1.25;;;;;;;-11.22;86.19;99352.06;5034318;28;20042;-68
2022/01/04 05:17:31;;;;;;;9.05;1.77;;;;;;;-11.28;86.57;99351.97;5034697;28;20045;-68
2022/01/04 05:19:59;;;;;;;1.30;1.20;;;;;;;-11.25;85.63;99347.00;5034318;28;20042;-67
2022/01/04 05:22:25;;;;;;;;;;;;;;;-11.41;86.37;99350.16;5035079;28;20114;-68
2022/01/04 05:24:52;;;;;;;1.38;1.13;;;;;;;-11.31;86.94;99346.09;5034564;28;19963;-69
2022/01/04 05:27:20;;;;;;;2.28;1.50;;;;;;;-11.27;85.68;99351.16;5034486;28;20050;-65
2022/01/04 05:29:48;;;;;;;1.05;1.05;;;;;;;-11.25;85.07;99351.16;5034386;28;20088;-69
2022/01/04 05:32:15;;;;;;;2.17;1.45;;;;;;;-11.26;84.97;99342.78;5034496;28;20100;-69
2022/01/04 05:34:42;;;;;;;1.33;1.23;;;;;;;-11.29;84.80;99339.41;5034379;28;20103;-68
2022/01/04 05:37:10;;;;;;;1.50;1.40;;;;;;;-11.30;85.68;99346.13;5034258;28;20049;-69
2022/01/04 05:39:36;;;;;;;;;;;;;;;-11.35;85.84;99341.84;5034579;28;20045;-70
2022/01/04 05:42:04;;;;;;;1.42;1.33;;;;;;;-11.31;86.31;99338.56;5034376;28;19951;-69
2022/01/04 05:44:31;;;;;;;1.00;1.00;;;;;;;-11.31;84.27;99336.88;5033879;28;20045;-70
2022/01/04 05:47:00;;;;;;;6.07;1.73;;;;;;;-11.36;85.75;99333.47;5034008;28;20542;-68
2022/01/04 05:49:27;;;;;;;3.58;1.80;;;;;;;-11.43;86.00;99330.06;5034107;28;20396;-69
2022/01/04 05:51:53;;;;;;;;;;;;;;;-11.36;85.41;99336.00;5034212;28;20104;-68
2022/01/04 05:54:21;;;;;;;1.80;1.42;;;;;;;-11.40;84.87;99337.63;5034267;28;19921;-69
2022/01/04 05:56:48;;;;;;;4.03;1.48;;;;;;;-11.39;84.03;99335.97;5033843;28;20041;-70
2022/01/04 05:59:15;;;;;;;1.88;1.60;;;;;;;-11.51;86.46;99336.66;5033818;28;20045;-69
2022/01/04 06:01:42;;;;;;;1.48;1.38;;;;;;;-11.43;84.98;99344.28;5033596;28;20050;-69
2022/01/04 06:04:11;;;;;;;1.45;1.35;;;;;;;-11.52;85.89;99344.19;5033369;28;20492;-69
2022/01/04 06:06:40;;;;;;;2.63;1.30;;;;;;;-11.50;84.66;99342.53;5033110;28;20075;-69
2022/01/04 06:09:15;;;;;;;7.68;3.17;;;;;;;-11.47;84.62;99335.88;5033557;28;20042;-69
2022/01/04 06:11:57;;;;;;;2.63;1.40;;;;;;;-11.51;84.14;99336.66;5033701;28;20091;-69
2022/01/04 06:17:10;;;;;;;1.30;1.20;;;;;;;-11.57;85.29;99336.59;5033480;28;20100;-69
2022/01/04 06:19:40;;;;;;;2.13;1.50;;;;;;;-11.47;84.39;99340.06;5033347;28;20410;-69
2022/01/04 06:22:07;;;;;;;1.70;1.60;;;;;;;-11.61;84.98;99327.34;5033213;28;20111;-68
2022/01/04 06:24:36;;;;;;;1.55;1.45;;;;;;;-11.69;85.46;99332.28;5033370;28;20045;-68
2022/01/04 06:27:07;;;;;;;1.85;1.48;;;;;;;-11.69;84.84;99327.25;5033167;28;20060;-69
2022/01/04 06:29:35;;;;;;;1.58;1.30;;;;;;;-11.69;84.99;99319.72;5032983;28;20479;-69
2022/01/04 06:32:03;;;;;;;1.30;1.20;;;;;;;-11.64;84.66;99314.75;5033152;28;20045;-64
2022/01/04 06:34:30;;;;;;;1.50;1.40;;;;;;;-11.65;84.33;99325.63;5033181;28;20080;-68
2022/01/04 06:36:59;;;;;;;1.27;1.20;;;;;;;-11.69;85.86;99317.22;5033054;28;20545;-69
2022/01/04 06:39:27;;;;;;;2.13;1.67;;;;;;;-11.67;85.11;99318.09;5032938;28;20495;-68
2022/01/04 06:41:54;;;;;;;;;;;;;;;-11.60;84.00;99331.56;5033867;28;20104;-69
2022/01/04 06:44:21;;;;;;;1.17;1.08;;;;;;;-11.59;84.92;99314.81;5032878;28;19921;-68
2022/01/04 06:46:48;;;;;;;1.98;1.50;;;;;;;-11.65;84.19;99326.47;5032664;28;20104;-68
2022/01/04 06:49:16;;;;;;;1.38;1.27;;;;;;;-11.66;84.43;99317.28;5033012;28;20083;-68
2022/01/04 06:51:44;;;;;;;1.45;1.35;;;;;;;-11.65;84.30;99318.94;5032822;28;20447;-69
2022/01/04 06:54:13;;;;;;;1.65;1.55;;;;;;;-11.68;85.11;99313.91;5032659;28;20096;-69
2022/01/04 06:56:41;;;;;;;2.45;1.25;;;;;;;-11.66;84.46;99324.81;5032764;28;20092;-69
2022/01/04 06:59:09;;;;;;;1.60;1.50;;;;;;;-11.69;84.86;99316.38;5032619;28;20443;-68
2022/01/04 07:01:37;;;;;;;1.50;1.20;;;;;;;-11.65;84.96;99316.44;5032758;28;20045;-68
2022/01/04 07:04:04;;;;;;;1.23;1.13;;;;;;;-11.64;84.92;99320.63;5032878;28;20111;-67
2022/01/04 07:06:31;;;;;;;1.58;1.48;;;;;;;-11.63;83.44;99318.97;5032873;28;20050;-69
2022/01/04 07:08:58;;;;;;;8.98;1.33;;;;;;;-11.63;83.75;99309.78;5032600;28;20046;-68
2022/01/04 07:11:27;;;;;;;2.53;1.15;;;;;;;-11.66;84.99;99303.84;5032593;28;20488;-69
2022/01/04 07:13:54;;;;;;;1.35;1.25;;;;;;;-11.65;84.07;99310.59;5032365;28;20057;-68
2022/01/04 07:16:21;;;;;;;2.22;1.48;;;;;;;-11.72;85.05;99302.13;5032497;28;20119;-68
2022/01/04 07:18:49;;;;;;;1.48;1.30;;;;;;;-11.68;84.38;99308.88;5032515;28;20049;-69
2022/01/04 07:21:18;;;;;;;1.65;1.42;;;;;;;-11.72;85.12;99301.28;5032307;28;20045;-69
2022/01/04 07:23:46;;;;;;;1.20;1.15;;;;;;;-11.73;84.98;99305.47;5032357;28;20164;-68
2022/01/04 07:26:14;;;;;;;1.25;1.20;;;;;;;-11.69;85.26;99298.81;5032253;28;20049;-69
2022/01/04 07:28:45;;;;;;;1.50;1.40;;;;;;;-11.71;84.28;99293.78;5032379;28;20052;-69
2022/01/04 07:31:13;;;;;;;1.73;1.63;;;;;;;-11.66;85.24;99309.75;5032278;28;20046;-68
2022/01/04 07:33:40;;;;;;;3.00;1.40;;;;;;;-11.59;84.55;99305.63;5032290;28;20488;-68
2022/01/04 07:36:07;;;;;;;;;;;;;;;-11.58;83.98;99297.28;5032805;28;20080;-69
2022/01/04 07:38:35;;;;;;;1.55;1.45;;;;;;;-11.65;84.68;99300.53;5032457;28;19975;-70
2022/01/04 07:41:02;;;;;;;1.38;1.27;;;;;;;-11.60;85.02;99293.06;5032083;28;20049;-69
2022/01/04 07:43:29;;;;;;;;;;;;;;;-11.62;84.88;99300.56;5033627;28;20041;-68
2022/01/04 07:45:57;;;;;;;1.42;1.33;;;;;;;-11.69;85.57;99287.09;5032477;28;19925;-69
2022/01/04 07:48:24;;;;;;;1.40;1.30;;;;;;;-11.59;85.96;99293.06;5032254;28;20550;-67
2022/01/04 07:50:55;;;;;;;1.45;1.33;;;;;;;-11.58;85.39;99286.38;5032161;28;20385;-69
2022/01/04 07:53:22;;;;;;;1.27;1.17;;;;;;;-11.65;85.55;99293.00;5032083;28;20484;-69
2022/01/04 07:55:49;;;;;;;1.38;1.27;;;;;;;-11.60;86.42;99295.59;5032267;28;20050;-69
2022/01/04 07:58:16;;;;;;;3.08;1.63;;;;;;;-11.62;85.77;99295.56;5031992;28;20092;-67
2022/01/04 08:00:44;;;;;;;1.48;1.35;;;;;;;-11.72;85.11;99294.59;5032158;28;20041;-68
2022/01/04 08:03:13;;;;;;;1.75;1.63;;;;;;;-11.65;85.87;99288.84;5032005;28;20056;-69
2022/01/04 08:05:43;;;;;;;1.65;1.55;;;;;;;-11.59;85.89;99284.72;5032071;28;20046;-70
2022/01/04 08:08:11;;;;;;;1.55;1.38;;;;;;;-11.74;86.27;99293.75;5032015;28;20503;-67
2022/01/04 08:10:38;;;;;;;2.03;1.65;;;;;;;-11.71;86.05;99293.78;5032008;28;20455;-67
2022/01/04 08:13:05;;;;;;;1.17;1.15;;;;;;;-11.62;86.26;99288.84;5031791;28;20377;-69
2022/01/04 08:15:32;;;;;;;5.57;1.40;;;;;;;-11.66;86.05;99298.84;5031793;28;20049;-69
2022/01/04 08:17:59;;;;;;;1.45;1.35;;;;;;;-11.68;87.08;99291.31;5032439;28;20053;-68
2022/01/04 08:20:28;;;;;;;2.50;2.03;;;;;;;-11.63;85.96;99277.16;5031887;28;20439;-69
2022/01/04 08:22:55;;;;;;;1.63;1.52;;;;;;;-11.68;86.51;99271.25;5031851;28;20045;-68
2022/01/04 08:25:22;;;;;;;1.52;1.42;;;;;;;-11.72;86.92;99287.06;5031851;28;20095;-69
2022/01/04 08:27:52;;;;;;;1.63;1.50;;;;;;;-11.59;86.68;99283.03;5032034;28;20045;-69
2022/01/04 08:30:19;;;;;;;2.33;1.55;;;;;;;-11.68;87.07;99271.25;5035616;28;20052;-69
2022/01/04 08:32:50;;;;;;;1.95;1.10;;;;;;;-11.57;86.09;99268.00;5035661;28;20053;-69
2022/01/04 08:35:17;;;;;;;1.63;1.40;;;;;;;-11.65;86.34;99271.25;5035241;28;20045;-69
2022/01/04 08:37:46;;;;;;;1.50;1.33;;;;;;;-11.55;85.86;99276.41;5035473;28;20080;-69
2022/01/04 08:40:13;;;;;;;1.73;1.40;;;;;;;-11.64;86.64;99267.09;5035346;28;20061;-68
2022/01/04 08:42:41;;;;;;;1.45;1.35;;;;;;;-11.51;85.66;99258.84;5035961;28;20064;-68
2022/01/04 08:45:09;;;;;;;2.30;1.30;;;;;;;-11.53;84.82;99257.16;5035514;28;20119;-68
2022/01/04 08:47:37;;;;;;;1.60;1.33;;;;;;;-11.54;85.37;99252.97;5035166;28;20045;-69
2022/01/04 08:50:06;;;;;;;2.05;1.73;;;;;;;-11.56;85.44;99255.44;5035295;28;20080;-68
2022/01/04 08:52:33;;;;;;;2.65;1.60;;;;;;;-11.55;85.42;99246.28;5035166;28;20046;-69
2022/01/04 08:55:02;;;;;;;1.67;1.40;;;;;;;-11.57;85.45;99240.41;5035157;28;20176;-68
2022/01/04 08:57:29;;;;;;;1.40;1.30;;;;;;;-11.50;85.83;99244.66;5034989;28;20493;-66
2022/01/04 08:59:57;;;;;;;1.65;1.38;;;;;;;-11.54;85.04;99230.38;5035160;28;20045;-67
2022/01/04 09:02:24;;;;;;;2.13;1.67;;;;;;;-11.58;84.61;99242.06;5034660;28;20423;-68
2022/01/04 09:04:52;;;;;;;1.42;1.33;;;;;;;-11.49;83.70;99232.09;5034809;28;20128;-68
2022/01/04 09:07:19;;;;;;;9.38;5.75;;;;;;;-11.51;85.07;99226.22;5034978;28;20124;-68
2022/01/04 09:09:49;;;;;;;1.90;1.40;;;;;;;-11.48;83.83;99225.41;5034736;28;20381;-68
2022/01/04 09:12:18;;;;;;;1.40;1.30;;;;;;;-11.55;84.62;99229.53;5034939;28;20136;-68
2022/01/04 09:14:56;;;;;;;3.45;1.50;;;;;;;-11.59;85.19;99227.81;5034382;28;20530;-67
2022/01/04 09:20:10;;;;;;;1.17;1.15;;;;;;;-11.45;84.25;99220.44;5034669;28;20076;-67
2022/01/04 09:22:37;;;;;;;2.50;1.60;;;;;;;-11.46;85.19;99221.25;5034561;28;20049;-69
2022/01/04 09:25:05;;;;;;;;;;;;;;;-11.53;84.58;99209.47;5034777;28;20056;-67
2022/01/04 09:27:33;;;;;;;2.70;1.40;;;;;;;-11.48;84.15;99207.84;5034254;28;19928;-70
2022/01/04 09:30:03;;;;;;;2.28;1.65;;;;;;;-11.45;85.38;99205.38;5034333;28;20052;-69
2022/01/04 09:32:31;;;;;;;1.73;1.50;;;;;;;-11.40;83.85;99211.28;5034375;28;20041;-68
2022/01/04 09:34:58;;;;;;;1.45;1.35;;;;;;;-11.43;84.39;99209.59;5034161;28;20046;-70
2022/01/04 09:37:25;;;;;;;1.30;1.20;;;;;;;-11.29;84.19;99203.81;5034279;28;20504;-70
2022/01/04 09:39:52;;;;;;;1.30;1.20;;;;;;;-11.37;84.76;99191.22;5034196;28;20369;-69
2022/01/04 09:42:20;;;;;;;1.52;1.42;;;;;;;-11.36;84.55;99194.56;5034379;28;20045;-69
2022/01/04 09:44:49;;;;;;;1.40;1.30;;;;;;;-11.34;84.40;99191.22;5034263;28;20057;-69
2022/01/04 09:47:15;;;;;;;1.40;1.30;;;;;;;-11.40;85.41;99186.16;5033924;28;20045;-69
2022/01/04 09:49:42;;;;;;;1.33;1.23;;;;;;;-11.31;85.22;99181.19;5033941;28;20408;-69
2022/01/04 09:52:10;;;;;;;1.52;1.42;;;;;;;-11.29;85.54;99186.25;5033834;28;20403;-69
2022/01/04 09:54:39;;;;;;;2.03;1.65;;;;;;;-11.24;85.13;99182.94;5034041;28;20076;-68
2022/01/04 09:57:06;;;;;;;1.88;1.50;;;;;;;-11.18;85.08;99182.97;5034060;28;20107;-70
2022/01/04 09:59:33;;;;;;;4.38;1.35;;;;;;;-11.27;85.09;99177.91;5033904;28;20593;-68
2022/01/04 10:02:13;;;;;;;1.42;1.30;;;;;;;-11.32;84.46;99176.19;5033560;28;20492;-67
2022/01/04 10:04:40;;;;;;;1.90;1.55;;;;;;;-11.32;85.50;99181.22;5033773;28;20060;-67
2022/01/04 10:07:10;;;;;;;4.00;1.38;;;;;;;-11.30;84.89;99187.94;5033718;28;20060;-68
2022/01/04 10:09:44;;;;;;;1.52;1.42;;;;;;;-11.28;85.41;99188.75;5033777;28;20046;-64
2022/01/04 10:12:12;;;;;;;1.20;1.20;;;;;;;-11.28;85.61;99187.91;5033681;28;20095;-68
2022/01/04 10:14:41;;;;;;;2.95;1.52;;;;;;;-11.28;85.36;99181.22;5033577;28;20072;-68
2022/01/04 10:17:10;;;;;;;1.70;1.60;;;;;;;-11.26;85.22;99183.75;5033548;28;20045;-68
2022/01/04 10:19:40;;;;;;;2.28;1.77;;;;;;;-11.18;85.96;99172.09;5033749;28;20056;-68
2022/01/04 10:22:16;;;;;;;1.63;1.52;;;;;;;-11.15;85.53;99172.09;5033516;28;20060;-67
2022/01/04 10:24:44;;;;;;;2.00;1.83;;;;;;;-11.17;85.73;99171.28;5033519;28;20053;-68
2022/01/04 10:27:29;;;;;;;1.52;1.40;;;;;;;-11.24;85.64;99157.81;5032950;28;20056;-68
2022/01/04 10:30:10;;;;;;;1.60;1.45;;;;;;;-11.16;86.46;99160.41;5033292;28;20063;-69
2022/01/04 10:32:44;;;;;;;2.05;1.60;;;;;;;-11.07;85.94;99162.97;5033047;28;20495;-69
2022/01/04 10:35:21;;;;;;;2.25;1.70;;;;;;;-11.04;85.51;99157.97;5032880;28;20514;-69
2022/01/04 10:37:48;;;;;;;1.65;1.55;;;;;;;-11.06;85.98;99158.78;5032993;28;20129;-68
2022/01/04 10:40:15;;;;;;;2.30;1.38;;;;;;;-11.12;86.05;99146.19;5033005;28;20056;-69
2022/01/04 10:42:43;;;;;;;1.77;1.67;;;;;;;-11.04;85.67;99152.13;5033226;28;20046;-68
2022/01/04 10:45:29;;;;;;;5.80;1.90;;;;;;;-11.04;85.95;99142.91;5032879;28;20053;-64
2022/01/04 10:47:57;;;;;;;1.40;1.30;;;;;;;-11.02;86.24;99133.72;5032310;28;20049;-68
2022/01/04 10:50:35;;;;;;;2.88;1.40;;;;;;;-11.04;85.91;99134.53;5032451;28;20361;-68
2022/01/04 10:53:04;;;;;;;1.30;1.20;;;;;;;-10.84;85.83;99142.16;5032505;28;20041;-69
2022/01/04 10:55:33;;;;;;;1.73;1.60;;;;;;;-10.97;86.46;99139.59;5032689;28;20049;-69
2022/01/04 10:58:00;;;;;;;1.60;1.50;;;;;;;-10.87;86.01;99122.03;5032656;28;20385;-69
2022/01/04 11:00:28;;;;;;;1.52;1.42;;;;;;;-10.89;85.85;99117.03;5032653;28;20049;-65
2022/01/04 11:02:57;;;;;;;1.42;1.33;;;;;;;-10.87;85.75;99122.88;5032306;28;20484;-66
2022/01/04 11:05:25;;;;;;;1.50;1.40;;;;;;;-10.86;86.41;99123.75;5032544;28;20080;-69
2022/01/04 11:08:02;;;;;;;1.70;1.60;;;;;;;-10.90;85.99;99122.03;5032471;28;20049;-69
2022/01/04 11:10:34;;;;;;;1.90;1.47;;;;;;;-10.86;85.84;99122.06;5032647;28;20049;-68
2022/01/04 11:13:01;;;;;;;2.05;1.30;;;;;;;-10.86;85.40;99119.56;5032429;28;20049;-68
2022/01/04 11:15:29;;;;;;;1.27;1.20;;;;;;;-10.79;85.58;99116.25;5032142;28;20463;-64
2022/01/04 11:17:57;;;;;;;3.20;1.88;;;;;;;-10.87;85.79;99120.38;5032526;28;20106;-69
2022/01/04 11:20:24;;;;;;;1.40;1.30;;;;;;;-10.74;84.83;99113.72;5032494;28;20049;-68
2022/01/04 11:22:56;;;;;;;1.55;1.45;;;;;;;-10.82;85.51;99107.84;5032351;28;20049;-68
2022/01/04 11:25:25;;;;;;;3.42;1.55;;;;;;;-10.77;84.92;99109.53;5032265;28;20060;-68
2022/01/04 11:27:54;;;;;;;4.38;1.60;;;;;;;-10.83;85.71;99107.00;5032062;28;20155;-68
2022/01/04 11:30:25;;;;;;;1.30;1.23;;;;;;;-10.77;85.37;99112.03;5032574;28;20053;-68
2022/01/04 11:32:56;;;;;;;1.40;1.30;;;;;;;-10.75;84.95;99110.38;5032006;28;20060;-65
2022/01/04 11:35:26;;;;;;;2.28;1.58;;;;;;;-10.68;85.22;99095.34;5032038;28;20049;-68
2022/01/04 11:37:55;;;;;;;2.50;1.50;;;;;;;-10.77;84.80;99098.63;5031990;28;20053;-67
2022/01/04 11:40:25;;;;;;;1.42;1.33;;;;;;;-10.69;85.83;99101.19;5032064;28;20041;-67